Airfield :
LOGIN :

Register | Disclaimer

   EN    FR    IT 

 










Legend :    VFR   Marginal VFR   IFR   Intensive IFR   Very Intensive IFR
Visi :
Ceiling :
>= 8 km
>= 3000ft
5 to 8 km
1000 to 3000 ft
1500m to 5 km
500 to 1000 ft
800 to 1500m
200 to 500 ft
< 800m
< 200 ft
Symbols :   Thunderstorms  Fog  Heavy snow  Heavy precipitations  Wind > 20 kt
SIGMETs :     Misc.  Thunderstorms  Icing  Turbulence  Mountain Waves  Volcanic Ashes






- Airport Elevation : 584 ft


LFPV - Villacoublay Vélizy

CURRENT METAR :
  • 160400Z AUTO 18012KT 160V220 9999 -RA OVC005 12/11 Q1010 BECMG 19015G30KT

EXPIRED METARs :
  • 160330Z AUTO 19010KT 160V220 4900 -RA BR OVC005 12/11 Q1010 BECMG 19015G30KT 9999 -RADZ
  • 160300Z AUTO 19010KT 9999 -RA OVC006/// ///TCU 12/11 Q1010 BECMG BKN007 BKN035
  • 160230Z AUTO 18009KT 9999 -RA BKN007 BKN035 OVC064 12/11 Q1011 NOSIG
  • 160200Z AUTO 18008KT 140V230 9999 -RA BKN009/// BKN037/// OVC062/// ///TCU 11/11 Q1011 BECMG BKN030 BKN055
  • 160130Z AUTO 19008KT 160V230 9999 -RA SCT012 BKN026 BKN040 11/11 Q1011 NOSIG

TAF TAF LFPV
Valid from the 16 at 03:00 until the 17 at 03:00 UTC


160200Z 1603/1703 18008KT 9999 -RADZ BKN007 BKN035
BECMG 1605/1607 19015G30KT OVC004
BECMG 1611/1613 4000 RA



MET'MAP, your aeronautical weather chart ! - Copyright ORBIFLY December 2007 - Disclaimer

ORBIFLY MET'MAP TEAM :

Programming & Development : Alexandra Zaïnal
Concept & Development : Baudouin d'Aumeries
Co-Development & Prog : Marc-Olivier Méhu
Technical & hardware support : Manuel Goepfert

Contact : metmap@orbifly.com




SOURCES & CREDITS :

   NOAA